Time;durP1;ratioP1;P1;durP2;ratioP2;P2;SDS_P1;SDS_P2;PMS_P1;PMS_P2;Temp;Humidity;BMP_temperature;BMP_pressure;BME280_temperature;BME280_humidity;BME280_pressure;Samples;Min_cycle;Max_cycle;Signal;HPM_P1;HPM_P2
2023/11/09 00:01:09;;;;;;;;;;;;;;;5.14;57.88;94684.91;4982320;28;20087;-69
2023/11/09 00:03:34;;;;;;;;;;;;;;;5.52;55.74;94686.19;4981603;28;20006;-70
2023/11/09 00:05:59;;;;;;;;;;;;;;;5.13;58.95;94675.38;4980849;28;19926;-68
2023/11/09 00:08:25;;;;;;;;;;;;;;;5.61;56.03;94664.88;4981915;28;19921;-70
2023/11/09 00:10:50;;;;;;;;;;;;;;;5.69;55.34;94665.84;4976659;28;20017;-68
2023/11/09 00:13:18;;;;;;;;;;;;;;;5.73;56.71;94660.06;4979865;28;19925;-68
2023/11/09 00:15:43;;;;;;;;;;;;;;;5.93;56.75;94651.72;4975519;28;19922;-70
2023/11/09 00:18:08;;;;;;;;;;;;;;;5.75;56.30;94659.88;4978346;28;20706;-69
2023/11/09 00:20:34;;;;;;;;;;;;;;;5.89;55.48;94657.50;4980417;28;20561;-69
2023/11/09 00:22:59;;;;;;;;;;;;;;;5.79;53.87;94652.44;4981176;28;19930;-67
2023/11/09 00:25:26;;;;;;;;;;;;;;;5.92;54.62;94650.03;4981681;28;19924;-66
2023/11/09 00:27:52;;;;;;;;;;;;;;;5.98;53.78;94654.66;4981501;28;19926;-67
2023/11/09 00:30:17;;;;;;;;;;;;;;;5.72;53.84;94647.81;4981315;28;19921;-68
2023/11/09 00:32:42;;;;;;;;;;;;;;;5.85;53.27;94641.19;4981956;28;19930;-68
2023/11/09 00:35:07;;;;;;;;;;;;;;;6.02;54.21;94641.09;4981716;28;19929;-67
2023/11/09 00:37:33;;;;;;;;;;;;;;;5.91;54.87;94627.28;4982597;28;19921;-67
2023/11/09 00:39:59;;;;;;;;;;;;;;;5.94;55.04;94621.66;4981744;28;19959;-66
2023/11/09 00:42:24;;;;;;;;;;;;;;;5.74;55.15;94632.63;4980285;28;20330;-67
2023/11/09 00:44:50;;;;;;;;;;;;;;;5.83;53.69;94622.88;4981771;28;19961;-67
2023/11/09 00:47:15;;;;;;;;;;;;;;;5.85;55.25;94623.50;4980551;28;20295;-65
2023/11/09 00:49:40;;;;;;;;;;;;;;;5.95;55.40;94618.00;4980376;28;20515;-67
2023/11/09 00:52:06;;;;;;;;;;;;;;;5.92;54.35;94613.06;4980113;28;20015;-66
2023/11/09 00:54:31;;;;;;;;;;;;;;;5.87;54.15;94604.84;4980025;28;19924;-66
2023/11/09 00:56:56;;;;;;;;;;;;;;;5.58;54.71;94603.66;4977767;28;20371;-67
2023/11/09 00:59:21;;;;;;;;;;;;;;;5.37;53.76;94601.59;4978989;28;20341;-66
2023/11/09 01:01:46;;;;;;;;;;;;;;;5.58;54.21;94601.03;4975530;28;20012;-67
2023/11/09 01:04:12;;;;;;;;;;;;;;;5.69;54.41;94597.19;4978958;28;20023;-67
2023/11/09 01:06:37;;;;;;;;;;;;;;;5.78;54.83;94579.47;4974012;28;20471;-67
2023/11/09 01:09:03;;;;;;;;;;;;;;;5.87;54.55;94573.13;4976546;28;19959;-67
2023/11/09 01:11:28;;;;;;;;;;;;;;;5.53;55.56;94574.28;4973117;28;20008;-67
2023/11/09 01:13:53;;;;;;;;;;;;;;;5.66;54.38;94573.75;4976543;28;19972;-66
2023/11/09 01:16:19;;;;;;;;;;;;;;;5.41;56.33;94572.03;4971737;28;19977;-67
2023/11/09 01:18:44;;;;;;;;;;;;;;;5.63;55.30;94564.34;4977101;28;19922;-66
2023/11/09 01:21:10;;;;;;;;;;;;;;;5.52;54.08;94564.72;4978231;28;19971;-67
2023/11/09 01:23:36;;;;;;;;;;;;;;;4.66;56.58;94555.56;4977257;28;20020;-66
2023/11/09 01:26:01;;;;;;;;;;;;;;;4.81;56.04;94555.69;4973951;28;20465;-67
2023/11/09 01:28:27;;;;;;;;;;;;;;;4.95;57.93;94544.47;4980543;28;19918;-67
2023/11/09 01:30:52;;;;;;;;;;;;;;;4.92;57.89;94542.16;4980290;28;20012;-66
2023/11/09 01:33:17;;;;;;;;;;;;;;;5.19;57.43;94531.38;4980905;28;20695;-67
2023/11/09 01:35:43;;;;;;;;;;;;;;;5.36;56.52;94540.06;4983159;28;20401;-67
2023/11/09 01:38:08;;;;;;;;;;;;;;;4.70;56.78;94533.94;4976044;28;19957;-67
2023/11/09 01:40:34;;;;;;;;;;;;;;;5.13;56.67;94519.69;4972915;28;19956;-66
2023/11/09 01:42:59;;;;;;;;;;;;;;;5.45;55.97;94523.16;4977786;28;19965;-67
2023/11/09 01:45:24;;;;;;;;;;;;;;;5.50;56.66;94524.50;4975332;28;19976;-67
2023/11/09 01:47:51;;;;;;;;;;;;;;;4.85;57.67;94517.44;4978349;28;19924;-66
2023/11/09 01:50:16;;;;;;;;;;;;;;;5.03;56.21;94514.59;4982287;28;20059;-66
2023/11/09 01:52:41;;;;;;;;;;;;;;;5.35;56.26;94512.03;4980039;28;20036;-67
2023/11/09 01:55:06;;;;;;;;;;;;;;;5.34;55.06;94511.19;4978306;28;20308;-67
2023/11/09 01:57:32;;;;;;;;;;;;;;;4.89;57.01;94516.09;4979057;28;20318;-66
2023/11/09 01:59:57;;;;;;;;;;;;;;;5.04;56.02;94510.94;4980035;28;20327;-66
2023/11/09 02:02:22;;;;;;;;;;;;;;;5.39;56.63;94509.84;4980001;28;20560;-66
2023/11/09 02:04:48;;;;;;;;;;;;;;;5.42;56.65;94505.06;4980393;28;20687;-66
2023/11/09 02:07:13;;;;;;;;;;;;;;;5.37;56.54;94499.47;4978915;28;19930;-67
2023/11/09 02:09:38;;;;;;;;;;;;;;;5.47;54.99;94504.53;4977448;28;19921;-67
2023/11/09 02:12:03;;;;;;;;;;;;;;;5.58;54.76;94505.97;4974027;28;19914;-67
2023/11/09 02:14:29;;;;;;;;;;;;;;;5.26;54.02;94510.41;4981643;28;19922;-66
2023/11/09 02:16:54;;;;;;;;;;;;;;;5.15;54.92;94517.72;4977670;28;19926;-66
2023/11/09 02:19:20;;;;;;;;;;;;;;;4.32;56.91;94504.69;4979823;28;19932;-65
2023/11/09 02:21:45;;;;;;;;;;;;;;;4.77;55.71;94497.19;4979848;28;19996;-66
2023/11/09 02:24:10;;;;;;;;;;;;;;;4.47;57.83;94490.81;4980014;28;19973;-67
2023/11/09 02:26:36;;;;;;;;;;;;;;;5.17;54.80;94494.59;4979881;28;19921;-67
2023/11/09 02:29:01;;;;;;;;;;;;;;;4.59;56.93;94507.94;4979993;28;19980;-66
2023/11/09 02:31:26;;;;;;;;;;;;;;;3.36;59.41;94500.59;4979788;28;19926;-66
2023/11/09 02:33:52;;;;;;;;;;;;;;;4.43;58.33;94488.50;4974964;28;19925;-67
2023/11/09 02:36:17;;;;;;;;;;;;;;;5.06;55.56;94481.78;4975471;28;20643;-67
2023/11/09 02:38:43;;;;;;;;;;;;;;;5.06;57.13;94479.16;4979183;28;20586;-66
2023/11/09 02:41:08;;;;;;;;;;;;;;;5.31;55.74;94476.41;4978758;28;19925;-67
2023/11/09 02:43:39;;;;;;;;;;;;;;;5.37;55.40;94480.19;4979174;28;19936;-69
2023/11/09 02:46:05;;;;;;;;;;;;;;;4.28;56.15;94479.63;4979713;28;20395;-67
2023/11/09 02:48:30;;;;;;;;;;;;;;;3.65;60.15;94475.72;4978185;28;19957;-68
2023/11/09 02:50:55;;;;;;;;;;;;;;;4.81;56.20;94473.94;4978337;28;19922;-69
2023/11/09 02:53:21;;;;;;;;;;;;;;;4.94;58.07;94458.38;4977982;28;19941;-69
2023/11/09 02:55:46;;;;;;;;;;;;;;;5.18;56.53;94451.41;4977747;28;20005;-69
2023/11/09 02:58:11;;;;;;;;;;;;;;;5.54;54.72;94454.50;4977446;28;20295;-67
2023/11/09 03:00:37;;;;;;;;;;;;;;;5.54;56.08;94449.22;4980147;28;20354;-68
2023/11/09 03:03:02;;;;;;;;;;;;;;;5.50;54.30;94442.66;4977893;28;19956;-68
2023/11/09 03:05:27;;;;;;;;;;;;;;;5.73;55.67;94432.91;4979846;28;20001;-68
2023/11/09 03:07:54;;;;;;;;;;;;;;;5.86;54.83;94427.00;4980421;28;19922;-70
2023/11/09 03:10:20;;;;;;;;;;;;;;;5.74;55.00;94426.63;4980241;28;19968;-69
2023/11/09 03:12:47;;;;;;;;;;;;;;;5.85;56.10;94435.16;4977198;28;20553;-69
2023/11/09 03:15:12;;;;;;;;;;;;;;;6.02;55.33;94437.66;4979166;28;20001;-67
2023/11/09 03:17:43;;;;;;;;;;;;;;;6.05;55.21;94432.00;4977477;28;19918;-68
2023/11/09 03:20:09;;;;;;;;;;;;;;;6.04;54.97;94430.34;4978428;28;19986;-69
2023/11/09 03:22:37;;;;;;;;;;;;;;;5.20;57.23;94432.75;4975010;28;19926;-70
2023/11/09 03:25:03;;;;;;;;;;;;;;;5.44;56.03;94431.78;4977700;28;19959;-69
2023/11/09 03:27:29;;;;;;;;;;;;;;;5.09;57.09;94426.88;4975106;28;19922;-69
2023/11/09 03:29:54;;;;;;;;;;;;;;;5.62;56.63;94420.13;4967990;28;20370;-70
2023/11/09 03:32:19;;;;;;;;;;;;;;;5.82;54.52;94423.09;4978749;28;19961;-69
2023/11/09 03:34:44;;;;;;;;;;;;;;;5.71;53.96;94411.13;4982039;28;19933;-69
2023/11/09 03:37:10;;;;;;;;;;;;;;;5.73;55.71;94408.31;4980579;28;20044;-69
2023/11/09 03:39:38;;;;;;;;;;;;;;;5.60;55.38;94409.75;4981069;28;19968;-69
2023/11/09 03:42:03;;;;;;;;;;;;;;;5.09;56.67;94387.31;4978332;28;20648;-67
2023/11/09 03:44:38;;;;;;;;;;;;;;;5.73;55.70;94388.03;4980926;28;20009;-68
2023/11/09 03:47:03;;;;;;;;;;;;;;;5.95;55.69;94368.84;4977972;28;20024;-70
2023/11/09 03:49:29;;;;;;;;;;;;;;;6.20;53.48;94374.72;4980916;28;20020;-69
2023/11/09 03:51:54;;;;;;;;;;;;;;;5.84;53.56;94378.00;4979742;28;20542;-70
2023/11/09 03:54:19;;;;;;;;;;;;;;;5.52;55.04;94375.47;4979877;28;20284;-67
2023/11/09 03:56:44;;;;;;;;;;;;;;;4.95;56.12;94385.34;4976541;28;20017;-68
2023/11/09 03:59:09;;;;;;;;;;;;;;;5.11;57.82;94375.75;4978967;28;19925;-66
2023/11/09 04:01:35;;;;;;;;;;;;;;;5.37;56.51;94367.47;4980071;28;19926;-67
2023/11/09 04:04:01;;;;;;;;;;;;;;;5.43;56.14;94365.97;4981620;28;19926;-68
2023/11/09 04:06:27;;;;;;;;;;;;;;;5.03;56.54;94363.41;4977614;28;19918;-67
2023/11/09 04:08:52;;;;;;;;;;;;;;;5.24;57.13;94373.38;4979311;28;20580;-65
2023/11/09 04:11:17;;;;;;;;;;;;;;;5.27;56.80;94366.91;4971149;28;20642;-67
2023/11/09 04:13:42;;;;;;;;;;;;;;;5.29;56.53;94375.47;4977309;28;19965;-67
2023/11/09 04:16:08;;;;;;;;;;;;;;;5.67;56.70;94370.22;4982469;28;20549;-66
2023/11/09 04:18:33;;;;;;;;;;;;;;;5.84;55.64;94372.72;4983613;28;20307;-67
2023/11/09 04:20:58;;;;;;;;;;;;;;;5.70;54.74;94385.72;4981823;28;19926;-67
2023/11/09 04:23:24;;;;;;;;;;;;;;;5.35;55.14;94372.13;4980618;28;20048;-67
2023/11/09 04:25:51;;;;;;;;;;;;;;;5.85;55.88;94374.38;4981572;28;20000;-67
2023/11/09 04:28:17;;;;;;;;;;;;;;;5.98;55.56;94368.47;4982339;28;19914;-67
2023/11/09 04:30:42;;;;;;;;;;;;;;;6.02;53.62;94363.66;4981157;28;20472;-67
2023/11/09 04:33:09;;;;;;;;;;;;;;;5.30;55.17;94356.81;4981469;28;19956;-67
2023/11/09 04:35:39;;;;;;;;;;;;;;;4.25;57.55;94371.97;4981510;28;19933;-68
2023/11/09 04:38:04;;;;;;;;;;;;;;;4.62;58.76;94365.25;4981469;28;19924;-65
2023/11/09 04:40:30;;;;;;;;;;;;;;;5.06;56.41;94363.91;4982014;28;19940;-66
2023/11/09 04:42:58;;;;;;;;;;;;;;;5.28;56.66;94353.53;4981319;28;20024;-67
2023/11/09 04:45:25;;;;;;;;;;;;;;;5.18;57.54;94355.59;4980702;28;19924;-67
2023/11/09 04:47:55;;;;;;;;;;;;;;;5.53;55.21;94363.91;4978639;28;19944;-67
2023/11/09 04:50:27;;;;;;;;;;;;;;;5.05;57.36;94361.41;4977253;28;20033;-66
2023/11/09 04:53:03;;;;;;;;;;;;;;;4.88;56.69;94366.78;4980108;28;19948;-66
2023/11/09 04:55:32;;;;;;;;;;;;;;;4.99;56.43;94362.91;4976486;28;19922;-68
2023/11/09 05:08:52;;;;;;;;;;;;;;;5.70;56.62;94343.47;4975392;28;20000;-68
2023/11/09 05:11:18;;;;;;;;;;;;;;;5.64;55.51;94348.66;4974820;28;20479;-68
2023/11/09 05:13:44;;;;;;;;;;;;;;;4.72;57.97;94338.66;4974281;28;20283;-67
2023/11/09 05:16:09;;;;;;;;;;;;;;;5.52;56.68;94345.59;4970876;28;19922;-69
2023/11/09 05:18:34;;;;;;;;;;;;;;;4.05;61.49;94338.09;4973108;28;19933;-68
2023/11/09 05:21:00;;;;;;;;;;;;;;;5.12;58.47;94338.63;4974335;28;19922;-69
2023/11/09 05:23:25;;;;;;;;;;;;;;;5.37;58.41;94333.16;4979988;28;19922;-68
2023/11/09 05:25:51;;;;;;;;;;;;;;;4.85;57.13;94338.09;4979876;28;19949;-69
2023/11/09 05:28:17;;;;;;;;;;;;;;;4.68;58.72;94335.56;4979100;28;19918;-68
2023/11/09 05:30:42;;;;;;;;;;;;;;;5.32;56.96;94335.53;4977276;28;19917;-67
2023/11/09 05:33:07;;;;;;;;;;;;;;;4.90;59.95;94334.97;4978927;28;19922;-69
2023/11/09 05:35:32;;;;;;;;;;;;;;;5.41;57.33;94336.28;4975999;28;19965;-68
2023/11/09 05:37:58;;;;;;;;;;;;;;;5.76;55.08;94327.91;4977844;28;19922;-69
2023/11/09 05:40:23;;;;;;;;;;;;;;;4.00;62.55;94335.97;4977002;28;19922;-68
2023/11/09 05:42:48;;;;;;;;;;;;;;;5.14;59.45;94327.91;4976968;28;20012;-70
2023/11/09 05:45:14;;;;;;;;;;;;;;;5.33;57.38;94337.16;4977530;28;19928;-68
2023/11/09 05:47:40;;;;;;;;;;;;;;;5.63;59.50;94337.25;4979430;28;20322;-68
2023/11/09 05:50:05;;;;;;;;;;;;;;;5.73;55.53;94329.09;4975825;28;20111;-69
2023/11/09 05:52:31;;;;;;;;;;;;;;;5.72;58.43;94325.63;4972098;28;19965;-68
2023/11/09 05:54:56;;;;;;;;;;;;;;;6.03;58.50;94333.59;4974848;28;20570;-70
2023/11/09 05:57:21;;;;;;;;;;;;;;;5.17;59.35;94331.00;4976789;28;19922;-69
2023/11/09 05:59:46;;;;;;;;;;;;;;;5.36;55.39;94336.81;4974395;28;19956;-67
2023/11/09 06:02:12;;;;;;;;;;;;;;;5.08;57.43;94324.16;4974241;28;19930;-68
2023/11/09 06:04:37;;;;;;;;;;;;;;;5.11;58.17;94325.63;4973804;28;20579;-68
2023/11/09 06:07:03;;;;;;;;;;;;;;;4.74;57.28;94335.84;4976628;28;20215;-68
2023/11/09 06:09:29;;;;;;;;;;;;;;;4.04;61.26;94331.16;4977593;28;19968;-69
2023/11/09 06:11:55;;;;;;;;;;;;;;;5.24;58.01;94327.69;4979508;28;20385;-69
2023/11/09 06:14:20;;;;;;;;;;;;;;;5.13;57.25;94334.19;4978943;28;19925;-68
2023/11/09 06:16:46;;;;;;;;;;;;;;;4.24;61.70;94320.25;4977412;28;19977;-67
2023/11/09 06:19:13;;;;;;;;;;;;;;;4.99;58.31;94320.72;4976096;28;19959;-67
2023/11/09 06:21:38;;;;;;;;;;;;;;;4.43;59.99;94321.66;4979403;28;20276;-68
2023/11/09 06:24:04;;;;;;;;;;;;;;;5.02;58.63;94319.53;4979588;28;19936;-69
2023/11/09 06:26:29;;;;;;;;;;;;;;;4.69;58.74;94321.38;4979375;28;19973;-67
2023/11/09 06:28:55;;;;;;;;;;;;;;;5.14;58.66;94309.44;4979505;28;20599;-69
2023/11/09 06:31:23;;;;;;;;;;;;;;;5.07;57.50;94304.06;4979163;28;20291;-69
2023/11/09 06:33:49;;;;;;;;;;;;;;;5.02;58.46;94311.63;4977212;28;19992;-68
2023/11/09 06:36:15;;;;;;;;;;;;;;;3.60;61.61;94324.53;4977842;28;19957;-69
2023/11/09 06:38:41;;;;;;;;;;;;;;;4.60;59.66;94317.16;4979368;28;19968;-68
2023/11/09 06:41:07;;;;;;;;;;;;;;;4.67;59.31;94325.19;4981276;28;20362;-67
2023/11/09 06:43:33;;;;;;;;;;;;;;;4.78;58.95;94316.88;4980114;28;20554;-68
2023/11/09 06:45:58;;;;;;;;;;;;;;;4.04;61.88;94324.09;4977395;28;20059;-69
2023/11/09 06:48:23;;;;;;;;;;;;;;;3.31;64.26;94334.53;4984069;28;19961;-68
2023/11/09 06:50:48;;;;;;;;;;;;;;;2.99;64.42;94328.25;4980558;28;20167;-68
2023/11/09 06:53:17;;;;;;;;;;;;;;;4.53;60.45;94332.00;4980195;28;20775;-68
2023/11/09 06:55:43;;;;;;;;;;;;;;;4.88;58.80;94332.50;4979023;28;19989;-69
2023/11/09 06:58:09;;;;;;;;;;;;;;;4.57;59.91;94335.94;4977920;28;20531;-69
2023/11/09 07:00:34;;;;;;;;;;;;;;;5.09;58.38;94336.34;4979605;28;19926;-68
2023/11/09 07:03:00;;;;;;;;;;;;;;;5.04;58.23;94344.75;4983425;28;19929;-69
2023/11/09 07:05:25;;;;;;;;;;;;;;;3.65;62.27;94340.63;4982949;28;20549;-68
2023/11/09 07:07:50;;;;;;;;;;;;;;;4.92;58.66;94341.69;4982672;28;19918;-69
2023/11/09 07:10:16;;;;;;;;;;;;;;;4.77;59.02;94351.34;4978165;28;20102;-70
2023/11/09 07:12:41;;;;;;;;;;;;;;;4.27;61.03;94356.81;4982663;28;19952;-68
2023/11/09 07:15:07;;;;;;;;;;;;;;;4.03;61.85;94353.25;4982499;28;19925;-69
2023/11/09 07:17:33;;;;;;;;;;;;;;;4.88;58.96;94348.31;4983056;28;19922;-68
2023/11/09 07:19:59;;;;;;;;;;;;;;;4.56;59.44;94352.75;4981792;28;19924;-70
2023/11/09 07:22:24;;;;;;;;;;;;;;;4.41;60.85;94350.00;4981769;28;20634;-70
2023/11/09 07:24:52;;;;;;;;;;;;;;;4.55;60.66;94357.19;4981810;28;19928;-69
2023/11/09 07:27:17;;;;;;;;;;;;;;;5.06;58.69;94352.50;4977823;28;19960;-68
2023/11/09 07:29:42;;;;;;;;;;;;;;;5.16;58.82;94358.41;4980995;28;19914;-68
2023/11/09 07:32:08;;;;;;;;;;;;;;;5.19;58.45;94352.78;4980118;28;19925;-66
2023/11/09 07:34:36;;;;;;;;;;;;;;;5.27;57.90;94351.06;4981602;28;20445;-67
2023/11/09 07:37:01;;;;;;;;;;;;;;;4.94;58.27;94362.63;4981752;28;20390;-66
2023/11/09 07:39:27;;;;;;;;;;;;;;;4.41;61.62;94360.53;4982221;28;19995;-68
2023/11/09 07:42:02;;;;;;;;;;;;;;;4.30;61.41;94361.75;4981789;28;19948;-67
2023/11/09 07:44:28;;;;;;;;;;;;;;;4.97;59.50;94363.09;4980334;28;19925;-68
2023/11/09 07:46:53;;;;;;;;;;;;;;;5.20;58.46;94356.22;4977252;28;19963;-68
2023/11/09 07:49:19;;;;;;;;;;;;;;;5.25;57.66;94367.09;4978844;28;19967;-66
2023/11/09 07:51:45;;;;;;;;;;;;;;;4.81;58.12;94363.19;4982430;28;19917;-66
2023/11/09 07:54:11;;;;;;;;;;;;;;;4.89;58.70;94359.66;4974819;28;19918;-67
2023/11/09 07:56:37;;;;;;;;;;;;;;;3.86;60.92;94355.91;4976916;28;19917;-67
2023/11/09 07:59:03;;;;;;;;;;;;;;;4.67;59.29;94360.28;4976945;28;20498;-67
2023/11/09 08:01:28;;;;;;;;;;;;;;;3.78;63.19;94363.81;4980425;28;19976;-66
2023/11/09 08:03:53;;;;;;;;;;;;;;;3.91;61.91;94374.66;4971643;28;20517;-67
2023/11/09 08:06:19;;;;;;;;;;;;;;;1.90;68.15;94386.59;4973948;28;19926;-67
2023/11/09 08:08:47;;;;;;;;;;;;;;;3.99;62.81;94367.75;4981372;28;19922;-67
2023/11/09 08:11:12;;;;;;;;;;;;;;;4.53;60.80;94361.00;4981211;28;19930;-66
2023/11/09 08:13:37;;;;;;;;;;;;;;;3.81;62.31;94366.94;4979982;28;20056;-67
2023/11/09 08:16:03;;;;;;;;;;;;;;;4.11;62.41;94361.13;4980717;28;20433;-68
2023/11/09 08:18:29;;;;;;;;;;;;;;;3.73;62.34;94372.22;4980568;28;19960;-67
2023/11/09 08:20:54;;;;;;;;;;;;;;;3.39;63.51;94363.47;4979996;28;19922;-67
2023/11/09 08:23:19;;;;;;;;;;;;;;;4.03;62.93;94366.41;4981581;28;19930;-66
2023/11/09 08:25:44;;;;;;;;;;;;;;;3.14;66.05;94373.94;4981232;28;20122;-66
2023/11/09 08:28:10;;;;;;;;;;;;;;;2.75;65.84;94380.59;4979596;28;20291;-78
2023/11/09 08:30:36;;;;;;;;;;;;;;;3.76;63.37;94371.06;4982250;28;20012;-79
2023/11/09 08:33:04;;;;;;;;;;;;;;;3.68;63.78;94375.31;4982198;28;19940;-78
2023/11/09 08:35:29;;;;;;;;;;;;;;;3.76;63.58;94371.88;4982121;28;20012;-69
2023/11/09 08:38:00;;;;;;;;;;;;;;;2.38;66.67;94389.66;4986687;28;20028;-70
2023/11/09 08:40:27;;;;;;;;;;;;;;;3.21;66.22;94375.94;4987378;28;19952;-70
2023/11/09 08:42:53;;;;;;;;;;;;;;;3.05;66.34;94374.94;4988290;28;19964;-70
2023/11/09 08:45:21;;;;;;;;;;;;;;;4.01;63.31;94374.47;4988922;28;20505;-70
2023/11/09 08:47:46;;;;;;;;;;;;;;;4.57;61.57;94378.13;4987232;28;19929;-70
2023/11/09 08:50:13;;;;;;;;;;;;;;;2.91;66.83;94384.28;4988188;28;19934;-71
2023/11/09 08:52:41;;;;;;;;;;;;;;;2.57;67.46;94379.88;4987811;28;19928;-70
2023/11/09 08:55:08;;;;;;;;;;;;;;;2.94;67.13;94377.88;4985765;28;20392;-70
2023/11/09 08:57:33;;;;;;;;;;;;;;;2.89;66.14;94384.44;4985059;28;19926;-71
2023/11/09 09:00:00;;;;;;;;;;;;;;;4.03;63.83;94361.13;4984714;28;19937;-71
2023/11/09 09:02:25;;;;;;;;;;;;;;;3.28;66.45;94364.63;4987131;28;19933;-70
2023/11/09 09:04:51;;;;;;;;;;;;;;;3.19;67.43;94370.03;4984641;28;20579;-70
2023/11/09 09:07:16;;;;;;;;;;;;;;;4.29;62.66;94355.63;4986059;28;20239;-70
2023/11/09 09:09:43;;;;;;;;;;;;;;;4.56;61.47;94355.41;4987140;28;20506;-70
2023/11/09 09:12:10;;;;;;;;;;;;;;;3.49;66.03;94360.72;4978657;28;20512;-71
2023/11/09 09:14:35;;;;;;;;;;;;;;;2.90;66.26;94357.13;4984095;28;19952;-70
2023/11/09 09:17:05;;;;;;;;;;;;;;;2.41;69.98;94354.38;4987011;28;19933;-70
2023/11/09 09:19:30;;;;;;;;;;;;;;;2.66;69.61;94355.28;4986667;28;20399;-69
2023/11/09 09:21:55;;;;;;;;;;;;;;;2.31;69.86;94342.19;4986648;28;19970;-70
2023/11/09 09:24:20;;;;;;;;;;;;;;;3.94;65.19;94342.72;4988016;28;20597;-70
2023/11/09 09:26:46;;;;;;;;;;;;;;;3.04;66.21;94352.25;4986936;28;19956;-70
2023/11/09 09:29:11;;;;;;;;;;;;;;;3.22;67.09;94343.38;4985377;28;19956;-70
2023/11/09 09:31:36;;;;;;;;;;;;;;;2.94;67.83;94347.16;4983967;28;19952;-70
2023/11/09 09:34:07;;;;;;;;;;;;;;;3.63;66.09;94335.53;4987046;28;19959;-69
2023/11/09 09:36:33;;;;;;;;;;;;;;;3.66;65.35;94340.47;4987916;28;20476;-69
2023/11/09 09:38:59;;;;;;;;;;;;;;;3.11;66.66;94355.88;4986247;28;19933;-70
2023/11/09 09:41:27;;;;;;;;;;;;;;;3.79;64.86;94342.59;4988041;28;19932;-70
2023/11/09 09:43:52;;;;;;;;;;;;;;;3.88;64.32;94337.31;4984726;28;19998;-70
2023/11/09 09:46:18;;;;;;;;;;;;;;;3.50;64.46;94343.13;4981272;28;20698;-71
2023/11/09 09:48:44;;;;;;;;;;;;;;;3.45;65.72;94342.78;4983683;28;20020;-71
2023/11/09 09:51:13;;;;;;;;;;;;;;;4.09;64.90;94330.69;4986846;28;19925;-71
2023/11/09 09:53:38;;;;;;;;;;;;;;;4.05;63.57;94332.84;4983424;28;20140;-71
2023/11/09 09:56:04;;;;;;;;;;;;;;;3.73;65.13;94366.13;4986786;28;20039;-71
2023/11/09 09:58:31;;;;;;;;;;;;;;;3.32;67.13;94338.78;4984273;28;19952;-71
2023/11/09 10:00:57;;;;;;;;;;;;;;;3.62;66.42;94340.97;4981780;28;20426;-71
2023/11/09 10:03:23;;;;;;;;;;;;;;;4.03;64.85;94340.06;4984175;28;19940;-71
2023/11/09 10:05:48;;;;;;;;;;;;;;;2.48;68.50;94336.97;4982215;28;19928;-71
2023/11/09 10:08:14;;;;;;;;;;;;;;;3.39;67.66;94341.59;4986331;28;20002;-72
2023/11/09 10:10:44;;;;;;;;;;;;;;;2.82;68.87;94346.63;4985623;28;20358;-71
2023/11/09 10:13:10;;;;;;;;;;;;;;;3.86;66.46;94337.47;4984472;28;19928;-71
2023/11/09 10:15:35;;;;;;;;;;;;;;;4.26;63.21;94344.63;4982382;28;19975;-71
2023/11/09 10:18:00;;;;;;;;;;;;;;;4.53;63.03;94348.63;4981311;28;20036;-71
2023/11/09 10:20:26;;;;;;;;;;;;;;;4.69;61.89;94339.84;4987001;28;19952;-71
2023/11/09 10:22:52;;;;;;;;;;;;;;;4.85;62.69;94335.47;4983189;28;19933;-71
2023/11/09 10:25:18;;;;;;;;;;;;;;;4.50;62.51;94338.44;4985088;28;20031;-71
2023/11/09 10:27:47;;;;;;;;;;;;;;;4.38;62.70;94335.34;4985412;28;19977;-71
2023/11/09 10:30:15;;;;;;;;;;;;;;;3.38;66.31;94322.38;4987349;28;19952;-71
2023/11/09 10:32:40;;;;;;;;;;;;;;;4.78;61.93;94323.97;4985334;28;20444;-71
2023/11/09 10:35:07;;;;;;;;;;;;;;;4.61;61.79;94326.69;4985473;28;19922;-71
2023/11/09 10:37:33;;;;;;;;;;;;;;;4.75;61.95;94314.59;4986587;28;19956;-70
2023/11/09 10:40:04;;;;;;;;;;;;;;;5.26;61.12;94315.09;4986399;28;19922;-71
2023/11/09 10:42:30;;;;;;;;;;;;;;;4.40;62.45;94314.94;4982860;28;20445;-71
2023/11/09 10:44:55;;;;;;;;;;;;;;;5.11;60.82;94313.25;4984821;28;19917;-71
2023/11/09 10:47:24;;;;;;;;;;;;;;;4.71;62.73;94300.94;4983902;28;19925;-71
2023/11/09 10:49:52;;;;;;;;;;;;;;;4.51;62.66;94304.97;4983738;28;20029;-71
2023/11/09 10:52:19;;;;;;;;;;;;;;;4.65;62.18;94301.63;4981996;28;19925;-72
2023/11/09 10:54:46;;;;;;;;;;;;;;;4.63;62.45;94303.59;4984475;28;19929;-71
2023/11/09 10:57:11;;;;;;;;;;;;;;;3.78;65.59;94295.38;4984749;28;19957;-72
2023/11/09 10:59:40;;;;;;;;;;;;;;;4.15;63.88;94295.75;4984978;28;19960;-71
2023/11/09 11:02:11;;;;;;;;;;;;;;;4.05;63.57;94285.44;4984001;28;19926;-71
2023/11/09 11:04:36;;;;;;;;;;;;;;;3.73;66.02;94290.59;4984953;28;19935;-71
2023/11/09 11:07:02;;;;;;;;;;;;;;;3.34;66.16;94294.75;4981962;28;20294;-70
2023/11/09 11:09:27;;;;;;;;;;;;;;;3.51;65.51;94292.94;4982592;28;19925;-71
2023/11/09 11:12:00;;;;;;;;;;;;;;;3.60;66.20;94295.56;4986214;28;19925;-71
2023/11/09 11:14:25;;;;;;;;;;;;;;;3.38;68.16;94290.78;4983711;28;19961;-71
2023/11/09 11:16:54;;;;;;;;;;;;;;;3.92;65.14;94286.75;4983527;28;20675;-71
2023/11/09 11:19:38;;;;;;;;;;;;;;;4.43;63.64;94298.75;4986684;28;20004;-71
2023/11/09 11:22:09;;;;;;;;;;;;;;;3.51;67.03;94289.50;4986650;28;19934;-71
2023/11/09 11:24:53;;;;;;;;;;;;;;;4.13;65.77;94280.13;4989893;28;19937;-71
2023/11/09 11:27:37;;;;;;;;;;;;;;;4.34;63.75;94278.72;4988659;28;19958;-71
2023/11/09 11:30:25;;;;;;;;;;;;;;;3.91;64.73;94286.94;4988595;28;20599;-71
2023/11/09 11:32:55;;;;;;;;;;;;;;;4.10;65.23;94280.47;4987077;28;20446;-71
2023/11/09 11:35:39;;;;;;;;;;;;;;;3.23;68.03;94277.47;4987009;28;20001;-70
2023/11/09 11:38:05;;;;;;;;;;;;;;;3.58;67.48;94276.47;4988990;28;19959;-71
2023/11/09 11:40:34;;;;;;;;;;;;;;;3.86;65.66;94266.38;4987071;28;19952;-71
2023/11/09 11:42:59;;;;;;;;;;;;;;;3.27;69.04;94263.00;4986864;28;20331;-71
2023/11/09 11:45:24;;;;;;;;;;;;;;;3.83;65.32;94256.19;4987314;28;19958;-71
2023/11/09 11:47:49;;;;;;;;;;;;;;;3.95;65.73;94267.19;4988402;28;19925;-71
2023/11/09 11:50:16;;;;;;;;;;;;;;;4.23;64.56;94269.38;4987703;28;20275;-71
2023/11/09 11:52:46;;;;;;;;;;;;;;;4.06;65.45;94271.25;4985676;28;19960;-71
2023/11/09 11:55:14;;;;;;;;;;;;;;;3.73;65.52;94268.72;4986947;28;20433;-71
2023/11/09 11:58:14;;;;;;;;;;;;;;;4.38;64.64;94263.38;4986894;28;19948;-71
2023/11/09 12:00:40;;;;;;;;;;;;;;;4.24;65.83;94276.28;4964860;28;19929;-71
2023/11/09 12:03:16;;;;;;;;;;;;;;;4.22;64.17;94259.00;4980840;28;19930;-70
2023/11/09 12:05:43;;;;;;;;;;;;;;;3.62;67.20;94265.47;4988739;28;19963;-72
2023/11/09 12:08:12;;;;;;;;;;;;;;;4.03;66.91;94261.06;4988739;28;19984;-72
2023/11/09 12:10:43;;;;;;;;;;;;;;;4.57;64.26;94256.84;4989573;28;19965;-74
2023/11/09 12:13:09;;;;;;;;;;;;;;;4.79;63.45;94259.69;4986623;28;19938;-72
2023/11/09 12:15:37;;;;;;;;;;;;;;;4.41;64.80;94257.75;4986518;28;19964;-72
2023/11/09 12:18:06;;;;;;;;;;;;;;;5.48;61.50;94253.56;4984739;28;20004;-72
2023/11/09 12:20:33;;;;;;;;;;;;;;;5.34;61.49;94251.72;4983852;28;20547;-70
2023/11/09 12:23:03;;;;;;;;;;;;;;;4.97;63.51;94254.94;4985291;28;20016;-70
2023/11/09 12:25:28;;;;;;;;;;;;;;;3.74;66.51;94257.22;4986777;28;20046;-71
2023/11/09 12:28:00;;;;;;;;;;;;;;;5.08;63.13;94245.00;4987411;28;20013;-70
2023/11/09 12:30:25;;;;;;;;;;;;;;;5.30;62.16;94235.41;4984416;28;19937;-73
2023/11/09 12:32:54;;;;;;;;;;;;;;;4.21;65.28;94244.22;4988930;28;19955;-74
2023/11/09 12:35:20;;;;;;;;;;;;;;;5.14;62.27;94243.47;4989827;28;20729;-74
2023/11/09 12:37:55;;;;;;;;;;;;;;;4.30;64.26;94257.16;4985381;28;19968;-73
2023/11/09 12:40:23;;;;;;;;;;;;;;;4.11;66.30;94245.22;4985323;28;20490;-72
2023/11/09 12:42:48;;;;;;;;;;;;;;;3.53;68.75;94232.22;4984878;28;20469;-74
2023/11/09 12:45:14;;;;;;;;;;;;;;;4.15;64.78;94248.34;4988410;28;19968;-71
2023/11/09 12:47:40;;;;;;;;;;;;;;;4.55;65.06;94230.66;4984105;28;19933;-70
2023/11/09 12:50:05;;;;;;;;;;;;;;;4.32;64.92;94230.66;4985296;28;20022;-69
2023/11/09 12:52:31;;;;;;;;;;;;;;;4.03;64.61;94226.81;4987326;28;19926;-68
2023/11/09 12:54:56;;;;;;;;;;;;;;;4.77;63.74;94230.03;4987179;28;20387;-71
2023/11/09 12:57:22;;;;;;;;;;;;;;;2.66;71.10;94229.16;4985515;28;20482;-71
2023/11/09 12:59:48;;;;;;;;;;;;;;;4.51;65.10;94223.28;4985127;28;19992;-69
2023/11/09 13:02:18;;;;;;;;;;;;;;;4.77;63.93;94212.41;4984141;28;19956;-71
2023/11/09 13:04:52;;;;;;;;;;;;;;;4.75;63.67;94214.38;4986740;28;20418;-71